createdAt,value
2023-05-15T03:01:48.501Z,98449.00
2023-05-15T03:02:53.831Z,98444.41
2023-05-15T03:03:55.541Z,98445.31
2023-05-15T03:04:58.041Z,98443.66
2023-05-15T03:06:00.765Z,98442.88
2023-05-15T03:07:03.346Z,98442.88
2023-05-15T03:08:05.418Z,98448.88
2023-05-15T03:09:08.019Z,98449.00
2023-05-15T03:10:09.966Z,98445.69
2023-05-15T03:11:12.460Z,98445.69
2023-05-15T03:12:14.077Z,98450.00
2023-05-15T03:13:18.981Z,98447.44
2023-05-15T03:14:20.718Z,98446.56
2023-05-15T03:15:23.358Z,98450.00
2023-05-15T03:16:25.106Z,98446.66
2023-05-15T03:17:27.654Z,98444.88
2023-05-15T03:18:30.560Z,98443.34
2023-05-15T03:19:32.997Z,98438.97
2023-05-15T03:20:34.588Z,98439.91
2023-05-15T03:21:37.105Z,98440.91
2023-05-15T03:22:38.668Z,98448.59
2023-05-15T03:23:41.205Z,98436.69
2023-05-15T03:24:42.954Z,98447.00
2023-05-15T03:25:45.552Z,98437.56
2023-05-15T03:26:47.248Z,98442.00
2023-05-15T03:27:49.717Z,98441.34
2023-05-15T03:28:51.250Z,98443.03
2023-05-15T03:29:53.707Z,98438.91
2023-05-15T03:30:55.664Z,98441.47
2023-05-15T03:31:58.334Z,98447.34
2023-05-15T03:33:00.582Z,98439.59
2023-05-15T03:34:04.468Z,98446.38
2023-05-15T03:35:06.328Z,98444.03
2023-05-15T03:36:08.917Z,98453.41
2023-05-15T03:37:10.667Z,98446.38
2023-05-15T03:38:13.183Z,98441.78
2023-05-15T03:39:16.993Z,98450.22
2023-05-15T03:40:19.463Z,98450.22
2023-05-15T03:41:21.312Z,98443.34
2023-05-15T03:42:24.799Z,98446.91
2023-05-15T03:43:26.419Z,98448.69
2023-05-15T03:44:29.507Z,98451.50
2023-05-15T03:45:33.498Z,98455.84
2023-05-15T03:46:35.973Z,98456.84
2023-05-15T03:47:37.553Z,98454.50
2023-05-15T03:48:40.088Z,98447.84
2023-05-15T03:49:42.966Z,98455.75
2023-05-15T03:50:46.205Z,98454.97
2023-05-15T03:51:47.773Z,98455.88
2023-05-15T03:52:50.297Z,98451.63
2023-05-15T03:53:52.576Z,98453.97
2023-05-15T03:54:58.584Z,98450.28
2023-05-15T03:56:00.603Z,98461.44
2023-05-15T03:57:04.230Z,98464.97
2023-05-15T03:58:05.815Z,98464.34
2023-05-15T03:59:09.710Z,98460.09
2023-05-15T04:00:12.073Z,98457.53
2023-05-15T04:01:18.601Z,98454.97
2023-05-15T04:02:20.230Z,98454.97
2023-05-15T04:03:22.888Z,98452.50
2023-05-15T04:04:24.596Z,98455.19
2023-05-15T04:05:28.559Z,98464.78
2023-05-15T04:06:30.281Z,98460.81
2023-05-15T04:07:33.950Z,98459.25
2023-05-15T04:08:35.601Z,98468.84
2023-05-15T04:09:38.608Z,98457.91
2023-05-15T04:10:40.137Z,98459.94
2023-05-15T04:11:42.627Z,98465.06
2023-05-15T04:12:44.284Z,98462.25
2023-05-15T04:13:46.778Z,98463.03
2023-05-15T04:14:48.302Z,98466.50
2023-05-15T04:15:50.752Z,98463.03
2023-05-15T04:16:52.368Z,98466.63
2023-05-15T04:17:55.373Z,98459.94
2023-05-15T04:18:56.988Z,98455.03
2023-05-15T04:19:59.611Z,98462.94
2023-05-15T04:21:02.412Z,98460.63
2023-05-15T04:22:05.172Z,98452.38
2023-05-15T04:23:06.944Z,98461.06
2023-05-15T04:24:09.436Z,98459.50
2023-05-15T04:25:13.498Z,98454.59
2023-05-15T04:26:16.346Z,98462.41
2023-05-15T04:27:19.965Z,98461.75
2023-05-15T04:28:22.568Z,98458.44
2023-05-15T04:29:24.286Z,98455.06
2023-05-15T04:30:26.827Z,98463.22
2023-05-15T04:31:28.791Z,98464.22
2023-05-15T04:32:33.647Z,98459.31
2023-05-15T04:33:36.144Z,98464.66
2023-05-15T04:34:37.748Z,98457.56
2023-05-15T04:35:40.834Z,98459.31
2023-05-15T04:36:43.980Z,98458.66
2023-05-15T04:37:46.841Z,98456.22
2023-05-15T04:38:48.462Z,98456.31
2023-05-15T04:39:51.128Z,98462.69
2023-05-15T04:40:52.728Z,98444.06
2023-05-15T04:41:55.618Z,98451.19
2023-05-15T04:42:57.456Z,98453.97
2023-05-15T04:43:59.983Z,98453.44
2023-05-15T04:45:02.319Z,98446.16
2023-05-15T04:46:05.129Z,98450.88
2023-05-15T04:47:06.825Z,98450.41
2023-05-15T04:48:09.414Z,98448.03
2023-05-15T04:49:10.986Z,98450.16
2023-05-15T04:50:13.480Z,98451.25
2023-05-15T04:51:16.693Z,98447.25
2023-05-15T04:52:20.634Z,98452.50
2023-05-15T04:53:22.238Z,98449.25
2023-05-15T04:54:24.748Z,98446.03
2023-05-15T04:55:26.680Z,98445.22
2023-05-15T04:56:29.373Z,98447.25
2023-05-15T04:57:30.967Z,98447.47
2023-05-15T04:58:33.512Z,98450.16
2023-05-15T04:59:35.528Z,98451.28
2023-05-15T07:14:02.743Z,98433.31
2023-05-15T07:15:08.637Z,98439.69
2023-05-15T07:16:11.174Z,98433.78
2023-05-15T07:17:13.625Z,98439.38
2023-05-15T07:18:15.253Z,98432.97
2023-05-15T07:19:20.801Z,98436.81
2023-05-15T07:20:24.307Z,98429.69
2023-05-15T07:21:27.558Z,98422.53
2023-05-15T07:22:31.460Z,98435.00
2023-05-15T07:23:35.494Z,98428.34
2023-05-15T07:24:40.393Z,98433.50
2023-05-15T07:25:45.277Z,98430.69
2023-05-15T07:26:58.152Z,98435.97
2023-05-15T07:28:02.159Z,98432.63
2023-05-15T07:29:05.692Z,98432.56
2023-05-15T07:30:11.237Z,98429.50
2023-05-15T07:31:12.964Z,98437.91
2023-05-15T07:32:15.549Z,98430.81
2023-05-15T07:33:17.253Z,98436.28
2023-05-15T07:34:19.766Z,98435.00
2023-05-15T07:35:21.457Z,98435.44
2023-05-15T07:36:24.207Z,98424.56
2023-05-15T07:37:26.867Z,98432.66
2023-05-15T07:38:28.495Z,98432.00
2023-05-15T07:39:31.159Z,98433.09
2023-05-15T07:40:33.057Z,98432.22
2023-05-15T07:41:35.658Z,98435.03
2023-05-15T07:42:39.530Z,98437.66
2023-05-15T07:43:41.167Z,98437.09
2023-05-15T07:44:45.453Z,98436.03
2023-05-15T07:45:50.635Z,98427.91
2023-05-15T07:46:52.404Z,98425.66
2023-05-15T07:47:55.574Z,98422.38
2023-05-15T07:48:57.263Z,98426.72
2023-05-15T07:49:59.722Z,98427.38
2023-05-15T07:51:01.707Z,98428.03
2023-05-15T07:52:04.688Z,98426.09
2023-05-15T07:53:06.503Z,98427.75
2023-05-15T07:54:09.393Z,98423.94
2023-05-15T07:55:13.242Z,98424.25
2023-05-15T07:56:14.927Z,98431.63
2023-05-15T07:57:18.210Z,98429.41
2023-05-15T07:58:19.987Z,98423.78
2023-05-15T07:59:22.750Z,98427.53
2023-05-15T08:00:24.433Z,98429.31
2023-05-15T08:01:29.998Z,98428.63
2023-05-15T08:02:32.536Z,98410.47
2023-05-15T08:03:35.314Z,98424.28
2023-05-15T08:04:38.376Z,98422.06
2023-05-15T08:05:40.623Z,98427.19
2023-05-15T08:06:44.495Z,98428.66
2023-05-15T08:07:47.403Z,98427.38
2023-05-15T08:08:49.877Z,98426.78
2023-05-15T08:09:51.846Z,98431.91
2023-05-15T08:10:54.408Z,98429.34
2023-05-15T08:11:57.807Z,98427.31
2023-05-15T08:12:59.522Z,98435.53
2023-05-15T08:14:01.969Z,98430.09
2023-05-15T08:15:04.208Z,98431.97
2023-05-15T08:16:07.214Z,98435.81
2023-05-15T08:17:10.250Z,98420.41
2023-05-15T08:18:13.926Z,98431.59
2023-05-15T08:19:15.634Z,98429.44
2023-05-15T08:20:18.307Z,98430.13
2023-05-15T08:21:20.928Z,98417.56
2023-05-15T08:22:22.581Z,98425.06
2023-05-15T08:23:25.173Z,98426.19
2023-05-15T08:24:26.835Z,98426.34
2023-05-15T08:25:29.343Z,98426.66
2023-05-15T08:26:31.333Z,98424.44
2023-05-15T08:27:33.942Z,98422.44
2023-05-15T08:28:36.460Z,98425.22
2023-05-15T08:29:39.715Z,98418.50
2023-05-15T08:30:42.345Z,98423.09
2023-05-15T08:31:45.080Z,98420.69
2023-05-15T08:32:49.409Z,98415.72
2023-05-15T08:33:51.023Z,98417.72
2023-05-15T08:34:53.847Z,98419.75
2023-05-15T08:35:55.531Z,98419.06
2023-05-15T08:36:59.487Z,98415.06
2023-05-15T08:38:01.048Z,98418.59
2023-05-15T08:39:03.533Z,98411.94
2023-05-15T08:40:07.719Z,98411.97
2023-05-15T08:41:18.163Z,98418.97
2023-05-15T08:42:29.075Z,98413.50
2023-05-15T08:43:35.753Z,98417.06
2023-05-15T08:44:39.184Z,98418.59
2023-05-15T08:45:41.388Z,98418.81
2023-05-15T08:46:44.533Z,98413.00
2023-05-15T08:47:46.329Z,98411.53
2023-05-15T08:48:53.203Z,98416.16
2023-05-15T08:50:01.234Z,98410.56
2023-05-15T08:51:04.401Z,98413.88
2023-05-15T08:52:06.527Z,98410.78
2023-05-15T08:53:09.329Z,98412.78
2023-05-15T08:54:12.300Z,98411.13
2023-05-15T08:55:15.571Z,98408.34
2023-05-15T08:56:18.216Z,98409.38
2023-05-15T08:57:21.188Z,98404.53
2023-05-15T08:58:26.030Z,98406.41
2023-05-15T08:59:28.194Z,98405.47
2023-05-15T09:00:31.328Z,98405.50
2023-05-15T09:01:33.922Z,98413.59
2023-05-15T09:02:37.201Z,98401.63
2023-05-15T09:03:38.988Z,98398.47
2023-05-15T09:04:42.989Z,98400.56
2023-05-15T09:05:46.588Z,98392.16
2023-05-15T09:06:48.688Z,98393.47
2023-05-15T09:07:52.720Z,98391.44
2023-05-15T09:08:56.304Z,98398.53
2023-05-15T09:09:59.619Z,98394.19
2023-05-15T09:11:03.724Z,98396.34
2023-05-15T09:12:11.784Z,98388.81
2023-05-15T09:13:15.521Z,98393.94
2023-05-15T09:14:18.391Z,98394.72
2023-05-15T09:15:25.559Z,98391.25
2023-05-15T09:16:27.766Z,98404.16
2023-05-15T09:17:30.919Z,98396.88
2023-05-15T09:18:33.522Z,98398.69
2023-05-15T09:19:36.564Z,98393.41
2023-05-15T09:20:39.590Z,98387.56
2023-05-15T09:21:42.118Z,98392.03
2023-05-15T09:22:44.776Z,98390.19
2023-05-15T09:23:47.726Z,98385.97
2023-05-15T09:24:52.238Z,98392.19
2023-05-15T09:25:56.607Z,98393.84
2023-05-15T09:27:03.796Z,98385.81
2023-05-15T09:28:06.706Z,98384.88
2023-05-15T09:29:08.979Z,98382.50
2023-05-15T09:30:12.230Z,98382.19
2023-05-15T09:31:20.342Z,98388.00
2023-05-15T09:32:22.469Z,98377.09
2023-05-15T09:33:29.526Z,98383.81
2023-05-15T09:34:34.012Z,98382.44
2023-05-15T09:35:38.137Z,98380.63
2023-05-15T09:36:45.180Z,98368.75
2023-05-15T09:37:47.641Z,98377.88
2023-05-15T09:38:50.196Z,98380.34
2023-05-15T09:39:51.986Z,98380.75
2023-05-15T09:41:03.489Z,98380.56
2023-05-15T09:42:07.897Z,98381.84
2023-05-15T09:43:10.296Z,98379.09
2023-05-15T09:44:21.838Z,98382.56
2023-05-15T09:45:25.745Z,98370.69
2023-05-15T09:46:28.580Z,98375.28
2023-05-15T09:47:30.938Z,98379.06
2023-05-15T09:48:33.807Z,98381.88
2023-05-15T09:49:35.732Z,98376.47
2023-05-15T09:50:40.852Z,98381.81
2023-05-15T09:51:50.354Z,98370.97
2023-05-15T09:52:53.149Z,98366.00
2023-05-15T09:53:55.211Z,98365.13
2023-05-15T09:54:58.094Z,98363.38
2023-05-15T09:55:59.791Z,98362.69
2023-05-15T09:57:09.086Z,98361.78
2023-05-15T09:58:12.996Z,98366.75
2023-05-15T09:59:16.054Z,98354.38
2023-05-15T10:00:22.027Z,98360.66
2023-05-15T10:01:25.133Z,98359.91
2023-05-15T10:02:32.534Z,98368.91
2023-05-15T10:03:34.375Z,98364.56
2023-05-15T10:04:37.008Z,98355.13
2023-05-15T10:05:43.764Z,98356.13
2023-05-15T10:06:49.658Z,98355.50
2023-05-15T10:07:54.681Z,98357.03
2023-05-15T10:08:58.375Z,98361.94
2023-05-15T10:10:02.178Z,98357.72
2023-05-15T10:11:06.600Z,98357.28
2023-05-15T10:12:10.219Z,98355.59
2023-05-15T10:13:13.010Z,98349.97
2023-05-15T10:14:18.330Z,98347.88
2023-05-15T10:15:22.765Z,98353.31
2023-05-15T10:16:26.333Z,98349.09
2023-05-15T10:17:29.242Z,98342.53
2023-05-15T10:24:35.438Z,98363.34
2023-05-15T10:25:42.693Z,98361.88
2023-05-15T10:26:45.774Z,98356.09
2023-05-15T10:27:50.199Z,98346.19
2023-05-15T10:28:55.131Z,98351.97
2023-05-15T10:29:58.794Z,98345.72
2023-05-15T10:31:03.325Z,98358.69
2023-05-15T10:32:05.722Z,98360.19
2023-05-15T10:33:09.489Z,98363.81
2023-05-15T10:34:12.815Z,98364.28
2023-05-15T10:36:53.963Z,98366.16
2023-05-15T10:37:58.139Z,98359.63
2023-05-15T10:41:22.355Z,98361.69
2023-05-15T10:42:26.641Z,98365.72
2023-05-15T10:43:30.161Z,98368.53
2023-05-15T10:44:33.088Z,98364.22
2023-05-15T10:45:36.174Z,98375.72
2023-05-15T10:46:39.733Z,98380.63
2023-05-15T10:47:43.620Z,98373.00
2023-05-15T10:48:46.638Z,98380.59
2023-05-15T10:49:49.858Z,98375.19
2023-05-15T10:50:53.433Z,98381.81
2023-05-15T10:51:56.532Z,98378.81
2023-05-15T10:52:59.580Z,98383.22
2023-05-15T10:54:03.925Z,98379.56
2023-05-15T10:55:09.608Z,98377.47
2023-05-15T10:56:16.653Z,98385.06
2023-05-15T10:57:21.347Z,98381.00
2023-05-15T10:58:24.888Z,98385.31
2023-05-15T10:59:32.550Z,98380.22
2023-05-15T11:00:42.140Z,98382.72
2023-05-15T11:01:45.247Z,98382.41
2023-05-15T11:02:48.522Z,98380.44
2023-05-15T11:03:54.685Z,98378.75
2023-05-15T11:04:58.736Z,98380.81
2023-05-15T11:06:08.917Z,98385.91
2023-05-15T11:07:15.207Z,98380.56
2023-05-15T11:08:27.533Z,98375.16
2023-05-15T11:09:36.655Z,98388.38
2023-05-15T11:10:40.526Z,98389.28
2023-05-15T11:11:57.374Z,98391.78
2023-05-15T11:13:05.117Z,98380.66
2023-05-15T11:14:13.156Z,98381.44
2023-05-15T11:15:20.193Z,98382.78
2023-05-15T11:16:53.292Z,98386.03
2023-05-15T11:18:04.930Z,98375.53
2023-05-15T11:19:22.853Z,98374.63
2023-05-15T11:20:35.177Z,98375.53
2023-05-15T11:21:46.435Z,98375.47
2023-05-15T11:23:00.040Z,98372.13
2023-05-15T11:24:07.484Z,98366.94
2023-05-15T11:25:16.449Z,98365.63
2023-05-15T11:26:35.138Z,98366.84
2023-05-15T11:27:42.708Z,98367.81
2023-05-15T11:28:47.384Z,98365.13
2023-05-15T11:30:07.748Z,98360.72
2023-05-15T11:31:10.408Z,98364.56
2023-05-15T11:32:40.985Z,98359.06
2023-05-15T11:33:43.641Z,98357.09
2023-05-15T11:34:45.209Z,98357.50
2023-05-15T11:35:48.959Z,98361.47
2023-05-15T11:36:51.213Z,98354.91
2023-05-15T11:37:55.383Z,98350.44
2023-05-15T11:38:58.034Z,98343.06
2023-05-15T11:40:00.658Z,98346.44
2023-05-15T11:41:03.774Z,98339.94
2023-05-15T11:42:12.045Z,98343.13
2023-05-15T11:43:19.587Z,98339.72
2023-05-15T11:44:23.459Z,98328.22
2023-05-15T11:45:26.133Z,98337.44
2023-05-15T11:46:29.049Z,98334.94
2023-05-15T11:47:31.581Z,98331.00
2023-05-15T11:48:35.853Z,98331.56
2023-05-15T11:49:38.351Z,98326.81
2023-05-15T11:50:41.975Z,98322.63
2023-05-15T11:51:44.813Z,98324.41
2023-05-15T11:52:46.996Z,98314.06
2023-05-15T11:53:51.809Z,98310.25
2023-05-15T11:54:54.616Z,98309.97
2023-05-15T11:55:57.198Z,98305.78
2023-05-15T11:56:58.872Z,98306.88
2023-05-15T11:58:01.641Z,98302.69
2023-05-15T11:59:04.117Z,98304.47
2023-05-15T12:00:09.894Z,98303.47
2023-05-15T12:01:13.158Z,98303.97
2023-05-15T12:02:16.722Z,98294.75
2023-05-15T12:03:23.701Z,98296.75
2023-05-15T12:04:26.375Z,98297.69
2023-05-15T12:05:28.125Z,98294.16
2023-05-15T12:06:31.620Z,98301.63
2023-05-15T12:07:37.106Z,98290.38
2023-05-15T12:08:39.882Z,98291.03
2023-05-15T12:09:42.950Z,98291.91
2023-05-15T12:10:47.119Z,98287.88
2023-05-15T12:11:51.505Z,98279.78
2023-05-15T12:12:54.036Z,98277.84
2023-05-15T12:13:56.835Z,98277.69
2023-05-15T12:14:58.741Z,98275.75
2023-05-15T12:16:04.915Z,98275.34
2023-05-15T12:17:06.765Z,98277.56
2023-05-15T12:18:09.875Z,98268.47
2023-05-15T12:19:12.499Z,98266.34
2023-05-15T12:20:18.631Z,98268.69
2023-05-15T12:21:21.224Z,98273.50
2023-05-15T12:22:22.821Z,98260.66
2023-05-15T12:23:27.265Z,98266.59
2023-05-15T12:24:28.917Z,98274.66
2023-05-15T12:25:33.079Z,98260.81
2023-05-15T12:26:36.386Z,98255.84
2023-05-15T12:27:40.776Z,98266.13
2023-05-15T12:28:43.471Z,98257.09
2023-05-15T12:29:45.724Z,98248.69
2023-05-15T12:30:48.902Z,98248.97
2023-05-15T12:31:53.883Z,98251.09
2023-05-15T12:33:00.779Z,98252.28
2023-05-15T12:34:03.580Z,98253.13
2023-05-15T12:35:06.980Z,98256.63
2023-05-15T12:36:09.662Z,98248.44
2023-05-15T12:37:13.129Z,98253.22
2023-05-15T12:38:16.725Z,98257.56
2023-05-15T12:39:19.276Z,98253.97
2023-05-15T12:40:22.840Z,98261.63
2023-05-15T12:41:27.348Z,98261.22
2023-05-15T12:42:29.960Z,98263.66
2023-05-15T12:43:33.157Z,98262.09
2023-05-15T12:44:34.942Z,98276.88
2023-05-15T12:45:39.921Z,98262.13
2023-05-15T12:46:42.534Z,98259.69
2023-05-15T12:47:48.850Z,98260.66
2023-05-15T12:48:50.809Z,98260.66
2023-05-15T12:49:57.068Z,98272.19
2023-05-15T12:51:05.964Z,98264.25
2023-05-15T12:52:08.492Z,98267.69
2023-05-15T12:53:14.972Z,98260.56
2023-05-15T12:54:18.214Z,98258.97
2023-05-15T12:55:25.632Z,98247.03
2023-05-15T12:56:30.462Z,98254.25
2023-05-15T12:57:32.701Z,98252.59
2023-05-15T12:58:35.562Z,98254.22
2023-05-15T12:59:40.680Z,98252.88
2023-05-15T13:00:45.981Z,98250.88
2023-05-15T13:01:48.481Z,98255.19
2023-05-15T13:02:54.388Z,98247.50
2023-05-15T13:03:57.388Z,98254.25
2023-05-15T13:05:01.877Z,98251.53
2023-05-15T13:06:04.504Z,98238.97
2023-05-15T13:07:06.784Z,98247.72
2023-05-15T13:08:09.288Z,98257.53
2023-05-15T13:09:11.032Z,98253.56
2023-05-15T13:10:14.078Z,98239.34
2023-05-15T13:11:18.209Z,98229.34
2023-05-15T13:12:20.044Z,98244.34
2023-05-15T13:13:22.538Z,98249.34
2023-05-15T13:14:27.345Z,98240.31
2023-05-15T13:15:32.361Z,98255.59
2023-05-15T13:16:37.610Z,98247.56
2023-05-15T13:17:39.970Z,98254.72
2023-05-15T13:18:44.080Z,98245.91
2023-05-15T13:19:46.597Z,98260.72
2023-05-15T13:20:51.843Z,98252.56
2023-05-15T13:21:54.055Z,98252.66
2023-05-15T13:22:56.782Z,98252.66
2023-05-15T13:23:59.341Z,98248.09
2023-05-15T13:25:01.060Z,98248.09
2023-05-15T13:26:03.555Z,98239.16
2023-05-15T13:27:06.190Z,98242.88
2023-05-15T13:28:11.115Z,98239.53
2023-05-15T13:29:12.749Z,98245.84
2023-05-15T13:30:15.677Z,98236.53
2023-05-15T13:31:18.412Z,98238.88
2023-05-15T13:32:20.011Z,98237.84
2023-05-15T13:33:22.592Z,98225.34
2023-05-15T13:34:26.341Z,98225.91
2023-05-15T13:35:29.113Z,98230.94
2023-05-15T13:36:31.972Z,98227.91
2023-05-15T13:37:33.664Z,98224.78
2023-05-15T13:38:36.200Z,98235.50
2023-05-15T13:39:37.815Z,98232.19
2023-05-15T13:40:40.612Z,98230.69
2023-05-15T13:41:43.109Z,98230.59
2023-05-15T13:42:44.821Z,98231.53
2023-05-15T13:43:49.192Z,98228.88
2023-05-15T13:44:51.037Z,98222.84
2023-05-15T13:45:53.541Z,98231.72
2023-05-15T13:46:56.041Z,98231.84
2023-05-15T13:47:57.818Z,98226.97
2023-05-15T13:49:00.917Z,98225.34
2023-05-15T13:50:04.036Z,98230.69
2023-05-15T13:51:06.748Z,98233.38
2023-05-15T13:52:09.371Z,98227.25
2023-05-15T13:53:12.319Z,98240.31
2023-05-15T13:54:14.789Z,98234.16
2023-05-15T13:55:17.254Z,98228.72
2023-05-15T13:56:19.841Z,98225.16
2023-05-15T13:57:22.772Z,98225.91
2023-05-15T13:58:26.486Z,98225.09
2023-05-15T13:59:28.176Z,98223.44
2023-05-15T14:00:30.777Z,98242.75
2023-05-15T14:01:33.298Z,98238.91
2023-05-15T14:02:35.988Z,98236.81
2023-05-15T14:03:38.790Z,98235.34
2023-05-15T14:04:40.620Z,98234.50
2023-05-15T14:05:44.411Z,98225.97
2023-05-15T14:06:46.043Z,98228.91
2023-05-15T14:07:48.587Z,98228.19
2023-05-15T14:08:51.098Z,98235.84
2023-05-15T14:09:52.713Z,98234.22
2023-05-15T14:10:55.253Z,98236.16
2023-05-15T14:11:56.895Z,98229.19
2023-05-15T14:13:00.789Z,98227.53
2023-05-15T14:14:03.767Z,98229.44
2023-05-15T14:15:07.268Z,98226.16
2023-05-15T14:16:09.768Z,98231.44
2023-05-15T14:17:11.570Z,98229.63
2023-05-15T14:18:14.289Z,98233.94
2023-05-15T14:19:16.514Z,98233.84
2023-05-15T14:20:19.185Z,98234.41
2023-05-15T14:21:22.973Z,98247.31
2023-05-15T14:22:25.575Z,98235.63
2023-05-15T14:23:28.147Z,98240.56
2023-05-15T14:24:29.876Z,98242.19
2023-05-15T14:25:32.342Z,98251.63
2023-05-15T14:26:34.020Z,98244.50
2023-05-15T14:27:36.557Z,98249.53
2023-05-15T14:28:39.164Z,98249.97
2023-05-15T14:29:40.828Z,98256.59
2023-05-15T14:30:43.266Z,98254.66
2023-05-15T14:31:44.882Z,98252.31
2023-05-15T14:32:47.470Z,98245.06
2023-05-15T14:33:52.321Z,98259.56
2023-05-15T14:34:54.250Z,98259.28
2023-05-15T14:35:56.725Z,98262.88
2023-05-15T14:36:59.626Z,98263.28
2023-05-15T14:38:02.743Z,98250.38
2023-05-15T14:39:04.423Z,98261.13
2023-05-15T14:40:08.592Z,98253.72
2023-05-15T14:41:10.359Z,98262.09
2023-05-15T14:42:13.008Z,98265.94
2023-05-15T14:43:14.640Z,98250.41
2023-05-15T14:44:17.142Z,98258.19
2023-05-15T14:45:19.848Z,98259.78
2023-05-15T14:46:21.589Z,98260.78
2023-05-15T14:47:25.205Z,98262.78
2023-05-15T14:48:26.911Z,98263.16
2023-05-15T14:49:29.434Z,98267.28
2023-05-15T14:50:31.910Z,98265.53
2023-05-15T14:51:33.693Z,98265.28
2023-05-15T14:52:37.632Z,98267.13
2023-05-15T14:53:39.299Z,98256.84
2023-05-15T14:54:41.823Z,98255.72
2023-05-15T14:55:44.359Z,98264.84
2023-05-15T14:56:48.353Z,98268.34
2023-05-15T14:57:50.832Z,98273.81
2023-05-15T14:58:54.098Z,98265.47
2023-05-15T14:59:56.731Z,98260.25
2023-05-15T15:00:59.237Z,98274.06
2023-05-15T15:02:01.098Z,98272.31
2023-05-15T15:03:03.975Z,98269.06
2023-05-15T15:04:06.867Z,98275.22
2023-05-15T15:05:10.327Z,98273.38
2023-05-15T15:06:12.092Z,98271.34
2023-05-15T15:07:14.933Z,98268.84
2023-05-15T15:08:18.011Z,98275.06
2023-05-15T15:09:21.496Z,98266.91
2023-05-15T15:10:23.604Z,98277.25
2023-05-15T15:11:26.367Z,98272.19
2023-05-15T15:12:28.966Z,98275.38
2023-05-15T15:13:30.953Z,98276.38
2023-05-15T15:14:33.544Z,98275.25
2023-05-15T15:15:36.159Z,98274.03
2023-05-15T15:16:37.826Z,98281.94
2023-05-15T15:17:40.616Z,98282.69
2023-05-15T15:18:43.571Z,98276.94
2023-05-15T15:19:45.453Z,98284.59
2023-05-15T15:20:48.020Z,98273.16
2023-05-15T15:21:49.580Z,98279.00
2023-05-15T15:22:52.687Z,98274.19
2023-05-15T15:23:56.445Z,98273.44
2023-05-15T15:25:00.928Z,98275.88
2023-05-15T15:26:03.826Z,98282.22
2023-05-15T15:27:06.823Z,98274.69
2023-05-15T15:28:09.119Z,98285.00
2023-05-15T15:29:11.682Z,98287.59
2023-05-15T15:30:13.821Z,98280.53
2023-05-15T15:31:16.644Z,98281.94
2023-05-15T15:32:18.279Z,98281.03
2023-05-15T15:33:20.784Z,98281.03
2023-05-15T15:34:23.421Z,98277.56
2023-05-15T15:35:25.171Z,98277.72
2023-05-15T15:36:27.947Z,98284.66
2023-05-15T15:37:30.683Z,98274.19
2023-05-15T15:38:33.219Z,98274.31
2023-05-15T15:39:36.158Z,98282.22
2023-05-15T15:40:38.680Z,98283.19
2023-05-15T15:41:40.326Z,98278.78
2023-05-15T15:42:42.841Z,98271.19
2023-05-15T15:43:44.482Z,98275.56
2023-05-15T15:44:47.054Z,98276.59
2023-05-15T15:45:49.631Z,98276.75
2023-05-15T15:46:52.123Z,98282.09
2023-05-15T15:47:54.219Z,98274.44
2023-05-15T15:48:56.874Z,98280.50
2023-05-15T15:49:58.838Z,98273.34
2023-05-15T15:51:01.282Z,98278.69
2023-05-15T15:52:03.125Z,98280.53
2023-05-15T15:53:05.623Z,98271.72
2023-05-15T15:54:07.339Z,98278.75
2023-05-15T15:55:11.435Z,98281.53
2023-05-15T15:56:13.994Z,98285.09
2023-05-15T15:57:16.225Z,98286.13
2023-05-15T15:58:19.636Z,98286.31
2023-05-15T15:59:21.642Z,98279.56
2023-05-15T16:00:24.578Z,98278.78
2023-05-15T16:01:27.306Z,98284.03
2023-05-15T16:02:29.043Z,98280.31
2023-05-15T16:03:31.917Z,98281.81
2023-05-15T16:04:33.604Z,98283.34
2023-05-15T16:05:36.130Z,98284.06
2023-05-15T16:06:37.752Z,98284.06
2023-05-15T16:07:43.099Z,98292.03
2023-05-15T16:08:44.720Z,98287.88
2023-05-15T16:09:51.485Z,98281.16
2023-05-15T16:11:03.967Z,98289.56
2023-05-15T16:12:05.823Z,98290.25
2023-05-15T16:13:08.479Z,98287.72
2023-05-15T16:14:10.072Z,98279.63
2023-05-15T16:15:22.262Z,98285.91
2023-05-15T16:16:25.307Z,98283.41
2023-05-15T16:17:27.884Z,98293.16
2023-05-15T16:18:30.397Z,98295.09
2023-05-15T16:19:32.178Z,98293.63
2023-05-15T16:20:35.342Z,98296.66
2023-05-15T16:21:37.199Z,98300.66
2023-05-15T16:22:41.644Z,98302.00
2023-05-15T16:23:45.513Z,98303.22
2023-05-15T16:24:47.868Z,98302.69
2023-05-15T16:25:50.359Z,98305.88
2023-05-15T16:26:55.337Z,98310.66
2023-05-15T16:27:57.990Z,98307.94
2023-05-15T16:28:59.515Z,98308.56
2023-05-15T16:30:02.137Z,98306.69
2023-05-15T16:31:05.263Z,98306.47
2023-05-15T16:32:08.158Z,98309.84
2023-05-15T16:33:10.806Z,98302.81
2023-05-15T16:34:12.776Z,98305.22
2023-05-15T16:35:15.299Z,98307.63
2023-05-15T16:36:17.911Z,98301.50
2023-05-15T16:37:19.606Z,98303.88
2023-05-15T16:38:22.809Z,98301.25
2023-05-15T16:39:25.700Z,98301.28
2023-05-15T16:40:28.407Z,98305.50
2023-05-15T16:41:30.183Z,98303.72
2023-05-15T16:42:38.071Z,98309.00
2023-05-15T16:43:40.841Z,98304.59
2023-05-15T16:44:42.450Z,98310.66
2023-05-15T16:45:45.354Z,98302.00
2023-05-15T16:46:47.103Z,98310.56
2023-05-15T16:47:49.742Z,98305.34
2023-05-15T16:48:51.473Z,98309.78
2023-05-15T16:49:54.047Z,98304.59
2023-05-15T16:50:56.730Z,98302.78
2023-05-15T16:51:58.357Z,98308.78
2023-05-15T16:53:00.899Z,98310.56
2023-05-15T16:54:03.653Z,98302.63
2023-05-15T16:55:06.108Z,98303.47
2023-05-15T16:56:08.720Z,98301.69
2023-05-15T16:57:10.487Z,98306.78
2023-05-15T16:58:14.618Z,98300.78
2023-05-15T16:59:16.514Z,98307.72
2023-05-15T17:00:20.786Z,98306.78
2023-05-15T17:01:22.542Z,98304.13
2023-05-15T17:02:25.094Z,98309.34
2023-05-15T17:03:26.933Z,98307.56
2023-05-15T17:04:33.106Z,98313.47
2023-05-15T17:05:34.948Z,98315.13
2023-05-15T17:06:37.495Z,98318.44
2023-05-15T17:07:39.098Z,98314.84
2023-05-15T17:08:43.507Z,98310.28
2023-05-15T17:09:46.388Z,98319.63
2023-05-15T17:10:48.179Z,98315.16
2023-05-15T17:11:50.760Z,98312.31
2023-05-15T17:12:52.604Z,98318.44
2023-05-15T17:13:56.730Z,98314.81
2023-05-15T17:14:58.395Z,98323.47
2023-05-15T17:16:01.227Z,98319.19
2023-05-15T17:17:02.917Z,98316.53
2023-05-15T17:18:06.084Z,98325.22
2023-05-15T17:19:08.693Z,98321.75
2023-05-15T17:20:12.311Z,98320.72
2023-05-15T17:21:15.335Z,98330.94
2023-05-15T17:22:17.148Z,98325.50
2023-05-15T17:23:21.728Z,98323.59
2023-05-15T17:24:25.018Z,98327.84
2023-05-15T17:25:28.095Z,98333.06
2023-05-15T17:26:30.880Z,98332.09
2023-05-15T17:27:32.794Z,98333.53
2023-05-15T17:28:37.913Z,98332.59
2023-05-15T17:29:42.300Z,98338.50
2023-05-15T17:30:45.028Z,98337.69
2023-05-15T17:31:48.096Z,98340.22
2023-05-15T17:32:50.964Z,98340.91
2023-05-15T17:33:56.893Z,98346.00
2023-05-15T17:34:59.525Z,98345.13
2023-05-15T17:36:01.438Z,98348.31
2023-05-15T17:37:04.337Z,98349.97
2023-05-15T17:38:06.932Z,98344.63
2023-05-15T17:39:08.669Z,98341.03
2023-05-15T17:40:11.814Z,98342.88
2023-05-15T17:41:13.521Z,98343.81
2023-05-15T17:42:16.188Z,98349.81
2023-05-15T17:43:17.965Z,98344.63
2023-05-15T17:44:21.375Z,98341.13
2023-05-15T17:45:26.948Z,98344.53
2023-05-15T17:46:29.014Z,98340.97
2023-05-15T17:47:31.903Z,98343.53
2023-05-15T17:48:34.670Z,98346.84
2023-05-15T17:49:37.908Z,98347.50